Terminal Aerodrome Forecast
Issued by NWS

Home | Current Version | Previous Version | Text Only | Print | Product List | Glossary On
Versions: 1 2 3 4 5 6 7 8 9 10 11 12 13 14 15 16 17 18
000
FTUS46 KSEW 282346
TAFHQM
TAF
KHQM 282346Z 2900/2924 25012KT P6SM FEW250
     FM290300 29005KT P6SM FEW250
     FM291200 VRB03KT 5SM BR SCT009
      TEMPO 2912/2916 2SM BR BKN009
     FM291700 VRB05KT P6SM SCT015
     FM291900 25013KT P6SM FEW250=

USA.gov is the U.S. government's official web portal to all federal, state and local government web resources and services.